sensor_id;sensor_type;location;lat;lon;timestamp;temperature;humidity
24144;DHT22;12307;50.828;6.080;2022-11-20T00:01:43;19.50;55.40
24144;DHT22;12307;50.828;6.080;2022-11-20T00:04:10;19.50;55.40
24144;DHT22;12307;50.828;6.080;2022-11-20T00:06:37;19.50;55.40
24144;DHT22;12307;50.828;6.080;2022-11-20T00:09:03;19.50;55.40
24144;DHT22;12307;50.828;6.080;2022-11-20T00:11:32;19.50;55.40
24144;DHT22;12307;50.828;6.080;2022-11-20T00:14:00;19.40;55.30
24144;DHT22;12307;50.828;6.080;2022-11-20T00:16:27;19.50;55.40
24144;DHT22;12307;50.828;6.080;2022-11-20T00:18:54;19.40;55.30
24144;DHT22;12307;50.828;6.080;2022-11-20T00:21:21;19.50;55.40
24144;DHT22;12307;50.828;6.080;2022-11-20T00:23:47;19.50;55.40
24144;DHT22;12307;50.828;6.080;2022-11-20T00:26:15;19.50;55.40
24144;DHT22;12307;50.828;6.080;2022-11-20T00:28:43;19.40;55.30
24144;DHT22;12307;50.828;6.080;2022-11-20T00:31:11;19.40;55.30
24144;DHT22;12307;50.828;6.080;2022-11-20T00:33:37;19.40;55.40
24144;DHT22;12307;50.828;6.080;2022-11-20T00:36:05;19.40;55.30
24144;DHT22;12307;50.828;6.080;2022-11-20T00:38:30;19.40;55.30
24144;DHT22;12307;50.828;6.080;2022-11-20T00:40:57;19.40;55.30
24144;DHT22;12307;50.828;6.080;2022-11-20T00:43:23;19.40;55.30
24144;DHT22;12307;50.828;6.080;2022-11-20T00:45:50;19.50;55.40
24144;DHT22;12307;50.828;6.080;2022-11-20T00:48:16;19.40;55.30
24144;DHT22;12307;50.828;6.080;2022-11-20T00:50:42;19.40;55.30
24144;DHT22;12307;50.828;6.080;2022-11-20T00:53:07;19.40;55.30
24144;DHT22;12307;50.828;6.080;2022-11-20T00:55:33;19.40;55.30
24144;DHT22;12307;50.828;6.080;2022-11-20T00:57:59;19.40;55.30
24144;DHT22;12307;50.828;6.080;2022-11-20T01:00:24;19.40;55.30
24144;DHT22;12307;50.828;6.080;2022-11-20T01:02:51;19.40;55.30
24144;DHT22;12307;50.828;6.080;2022-11-20T01:05:17;19.40;55.30
24144;DHT22;12307;50.828;6.080;2022-11-20T01:07:43;19.40;55.30
24144;DHT22;12307;50.828;6.080;2022-11-20T01:10:08;19.40;55.30
24144;DHT22;12307;50.828;6.080;2022-11-20T01:12:34;19.40;55.30
24144;DHT22;12307;50.828;6.080;2022-11-20T01:15:00;19.40;55.30
24144;DHT22;12307;50.828;6.080;2022-11-20T01:17:25;19.40;55.30
24144;DHT22;12307;50.828;6.080;2022-11-20T01:19:52;19.40;55.30
24144;DHT22;12307;50.828;6.080;2022-11-20T01:22:18;19.40;55.30
24144;DHT22;12307;50.828;6.080;2022-11-20T01:24:44;19.40;55.30
24144;DHT22;12307;50.828;6.080;2022-11-20T01:27:09;19.40;55.30
24144;DHT22;12307;50.828;6.080;2022-11-20T01:29:35;19.40;55.30
24144;DHT22;12307;50.828;6.080;2022-11-20T01:32:00;19.40;55.30
24144;DHT22;12307;50.828;6.080;2022-11-20T01:34:26;19.40;55.30
24144;DHT22;12307;50.828;6.080;2022-11-20T01:36:53;19.40;55.30
24144;DHT22;12307;50.828;6.080;2022-11-20T01:39:21;19.40;55.30
24144;DHT22;12307;50.828;6.080;2022-11-20T01:41:48;19.40;55.30
24144;DHT22;12307;50.828;6.080;2022-11-20T01:44:47;19.40;55.30
24144;DHT22;12307;50.828;6.080;2022-11-20T01:47:15;19.40;55.30
24144;DHT22;12307;50.828;6.080;2022-11-20T01:49:45;19.40;55.30
24144;DHT22;12307;50.828;6.080;2022-11-20T01:52:21;19.40;55.30
24144;DHT22;12307;50.828;6.080;2022-11-20T01:54:50;19.40;55.30
24144;DHT22;12307;50.828;6.080;2022-11-20T01:57:16;19.40;55.30
24144;DHT22;12307;50.828;6.080;2022-11-20T01:59:47;19.40;55.30
24144;DHT22;12307;50.828;6.080;2022-11-20T02:02:14;19.40;55.30
24144;DHT22;12307;50.828;6.080;2022-11-20T02:04:40;19.40;55.30
24144;DHT22;12307;50.828;6.080;2022-11-20T02:07:06;19.40;55.30
24144;DHT22;12307;50.828;6.080;2022-11-20T02:09:33;19.40;55.30
24144;DHT22;12307;50.828;6.080;2022-11-20T02:11:59;19.40;55.30
24144;DHT22;12307;50.828;6.080;2022-11-20T02:14:26;19.40;55.30
24144;DHT22;12307;50.828;6.080;2022-11-20T02:16:54;19.40;55.30
24144;DHT22;12307;50.828;6.080;2022-11-20T02:19:23;19.40;55.20
24144;DHT22;12307;50.828;6.080;2022-11-20T02:21:56;19.40;55.30
24144;DHT22;12307;50.828;6.080;2022-11-20T02:24:26;19.40;55.20
24144;DHT22;12307;50.828;6.080;2022-11-20T02:26:54;19.40;55.80
24144;DHT22;12307;50.828;6.080;2022-11-20T02:29:25;19.40;55.20
24144;DHT22;12307;50.828;6.080;2022-11-20T02:31:53;19.40;55.20
24144;DHT22;12307;50.828;6.080;2022-11-20T02:34:20;19.40;55.30
24144;DHT22;12307;50.828;6.080;2022-11-20T02:36:46;19.40;55.20
24144;DHT22;12307;50.828;6.080;2022-11-20T02:39:13;19.40;55.20
24144;DHT22;12307;50.828;6.080;2022-11-20T02:41:43;19.40;55.30
24144;DHT22;12307;50.828;6.080;2022-11-20T02:44:09;19.40;55.20
24144;DHT22;12307;50.828;6.080;2022-11-20T02:46:34;19.40;55.20
24144;DHT22;12307;50.828;6.080;2022-11-20T02:49:01;19.40;55.20
24144;DHT22;12307;50.828;6.080;2022-11-20T02:51:27;19.40;55.20
24144;DHT22;12307;50.828;6.080;2022-11-20T02:53:53;19.40;55.30
24144;DHT22;12307;50.828;6.080;2022-11-20T02:56:19;19.40;55.20
24144;DHT22;12307;50.828;6.080;2022-11-20T02:58:46;19.40;55.20
24144;DHT22;12307;50.828;6.080;2022-11-20T03:01:12;19.40;55.20
24144;DHT22;12307;50.828;6.080;2022-11-20T03:03:37;19.40;55.20
24144;DHT22;12307;50.828;6.080;2022-11-20T03:06:04;19.40;55.20
24144;DHT22;12307;50.828;6.080;2022-11-20T03:08:29;19.40;55.20
24144;DHT22;12307;50.828;6.080;2022-11-20T03:10:55;19.40;55.20
24144;DHT22;12307;50.828;6.080;2022-11-20T03:13:21;19.40;55.10
24144;DHT22;12307;50.828;6.080;2022-11-20T03:15:48;19.40;55.20
24144;DHT22;12307;50.828;6.080;2022-11-20T03:18:13;19.40;55.20
24144;DHT22;12307;50.828;6.080;2022-11-20T03:20:40;19.40;55.10
24144;DHT22;12307;50.828;6.080;2022-11-20T03:23:05;19.40;55.20
24144;DHT22;12307;50.828;6.080;2022-11-20T03:25:31;19.40;55.20
24144;DHT22;12307;50.828;6.080;2022-11-20T03:27:56;19.40;55.20
24144;DHT22;12307;50.828;6.080;2022-11-20T03:30:22;19.40;55.20
24144;DHT22;12307;50.828;6.080;2022-11-20T03:32:52;19.40;55.20
24144;DHT22;12307;50.828;6.080;2022-11-20T03:35:18;19.40;55.20
24144;DHT22;12307;50.828;6.080;2022-11-20T03:37:44;19.40;55.20
24144;DHT22;12307;50.828;6.080;2022-11-20T03:40:11;19.40;55.20
24144;DHT22;12307;50.828;6.080;2022-11-20T03:42:37;19.40;55.20
24144;DHT22;12307;50.828;6.080;2022-11-20T03:45:12;19.40;55.20
24144;DHT22;12307;50.828;6.080;2022-11-20T03:47:38;19.40;55.20
24144;DHT22;12307;50.828;6.080;2022-11-20T03:50:06;19.40;55.10
24144;DHT22;12307;50.828;6.080;2022-11-20T03:52:32;19.40;55.20
24144;DHT22;12307;50.828;6.080;2022-11-20T03:54:57;19.40;55.20
24144;DHT22;12307;50.828;6.080;2022-11-20T03:57:23;19.40;55.20
24144;DHT22;12307;50.828;6.080;2022-11-20T03:59:49;19.30;55.20
24144;DHT22;12307;50.828;6.080;2022-11-20T04:02:14;19.40;55.20
24144;DHT22;12307;50.828;6.080;2022-11-20T04:04:40;19.30;55.20
24144;DHT22;12307;50.828;6.080;2022-11-20T04:07:07;19.30;55.10
24144;DHT22;12307;50.828;6.080;2022-11-20T04:09:32;19.30;55.20
24144;DHT22;12307;50.828;6.080;2022-11-20T04:11:58;19.40;55.20
24144;DHT22;12307;50.828;6.080;2022-11-20T04:14:24;19.40;55.30
24144;DHT22;12307;50.828;6.080;2022-11-20T04:16:49;19.40;55.20
24144;DHT22;12307;50.828;6.080;2022-11-20T04:19:16;19.30;55.10
24144;DHT22;12307;50.828;6.080;2022-11-20T04:21:42;19.40;55.20
24144;DHT22;12307;50.828;6.080;2022-11-20T04:24:09;19.40;55.20
24144;DHT22;12307;50.828;6.080;2022-11-20T04:26:38;19.40;55.20
24144;DHT22;12307;50.828;6.080;2022-11-20T04:29:04;19.40;55.20
24144;DHT22;12307;50.828;6.080;2022-11-20T04:31:32;19.40;55.10
24144;DHT22;12307;50.828;6.080;2022-11-20T04:33:59;19.40;55.20
24144;DHT22;12307;50.828;6.080;2022-11-20T04:36:26;19.40;55.20
24144;DHT22;12307;50.828;6.080;2022-11-20T04:38:53;19.40;55.20
24144;DHT22;12307;50.828;6.080;2022-11-20T04:41:21;19.40;55.10
24144;DHT22;12307;50.828;6.080;2022-11-20T04:43:48;19.40;55.20
24144;DHT22;12307;50.828;6.080;2022-11-20T04:46:15;19.40;55.20
24144;DHT22;12307;50.828;6.080;2022-11-20T04:48:41;19.40;55.20
24144;DHT22;12307;50.828;6.080;2022-11-20T04:51:06;19.30;55.10
24144;DHT22;12307;50.828;6.080;2022-11-20T04:53:32;19.40;55.10
24144;DHT22;12307;50.828;6.080;2022-11-20T04:55:59;19.30;55.10
24144;DHT22;12307;50.828;6.080;2022-11-20T04:58:27;19.40;55.20
24144;DHT22;12307;50.828;6.080;2022-11-20T05:00:52;19.40;55.20
24144;DHT22;12307;50.828;6.080;2022-11-20T05:03:18;19.40;55.10
24144;DHT22;12307;50.828;6.080;2022-11-20T05:05:44;19.40;55.20
24144;DHT22;12307;50.828;6.080;2022-11-20T05:08:09;19.30;55.10
24144;DHT22;12307;50.828;6.080;2022-11-20T05:10:35;19.30;55.10
24144;DHT22;12307;50.828;6.080;2022-11-20T05:13:00;19.30;55.10
24144;DHT22;12307;50.828;6.080;2022-11-20T05:15:27;19.40;55.10
24144;DHT22;12307;50.828;6.080;2022-11-20T05:17:53;19.30;55.10
24144;DHT22;12307;50.828;6.080;2022-11-20T05:20:19;19.30;55.10
24144;DHT22;12307;50.828;6.080;2022-11-20T05:22:45;19.30;55.10
24144;DHT22;12307;50.828;6.080;2022-11-20T05:25:11;19.40;55.20
24144;DHT22;12307;50.828;6.080;2022-11-20T05:27:37;19.30;55.10
24144;DHT22;12307;50.828;6.080;2022-11-20T05:30:04;19.30;55.10
24144;DHT22;12307;50.828;6.080;2022-11-20T05:32:31;19.40;55.20
24144;DHT22;12307;50.828;6.080;2022-11-20T05:34:57;19.30;55.10
24144;DHT22;12307;50.828;6.080;2022-11-20T05:37:22;19.30;55.10
24144;DHT22;12307;50.828;6.080;2022-11-20T05:39:48;19.30;55.10
24144;DHT22;12307;50.828;6.080;2022-11-20T05:42:14;19.30;55.10
24144;DHT22;12307;50.828;6.080;2022-11-20T05:44:58;19.30;55.10
24144;DHT22;12307;50.828;6.080;2022-11-20T05:47:23;19.30;55.10
24144;DHT22;12307;50.828;6.080;2022-11-20T05:49:50;19.30;55.10
24144;DHT22;12307;50.828;6.080;2022-11-20T05:52:16;19.30;55.10
24144;DHT22;12307;50.828;6.080;2022-11-20T05:54:42;19.30;55.10
24144;DHT22;12307;50.828;6.080;2022-11-20T05:57:07;19.30;55.10
24144;DHT22;12307;50.828;6.080;2022-11-20T05:59:33;19.30;55.10
24144;DHT22;12307;50.828;6.080;2022-11-20T06:01:59;19.30;55.10
24144;DHT22;12307;50.828;6.080;2022-11-20T06:04:24;19.30;55.10
24144;DHT22;12307;50.828;6.080;2022-11-20T06:06:51;19.30;55.10
24144;DHT22;12307;50.828;6.080;2022-11-20T06:09:17;19.30;55.10
24144;DHT22;12307;50.828;6.080;2022-11-20T06:11:43;19.30;55.10
24144;DHT22;12307;50.828;6.080;2022-11-20T06:14:08;19.30;55.10
24144;DHT22;12307;50.828;6.080;2022-11-20T06:16:34;19.30;55.10
24144;DHT22;12307;50.828;6.080;2022-11-20T06:18:59;19.30;55.10
24144;DHT22;12307;50.828;6.080;2022-11-20T06:21:25;19.30;55.10
24144;DHT22;12307;50.828;6.080;2022-11-20T06:23:52;19.30;55.10
24144;DHT22;12307;50.828;6.080;2022-11-20T06:26:20;19.30;55.10
24144;DHT22;12307;50.828;6.080;2022-11-20T06:28:46;19.30;55.10
24144;DHT22;12307;50.828;6.080;2022-11-20T06:31:14;19.30;55.10
24144;DHT22;12307;50.828;6.080;2022-11-20T06:33:40;19.30;55.10
24144;DHT22;12307;50.828;6.080;2022-11-20T06:36:06;19.30;55.10
24144;DHT22;12307;50.828;6.080;2022-11-20T06:38:32;19.30;55.10
24144;DHT22;12307;50.828;6.080;2022-11-20T06:40:59;19.30;55.10
24144;DHT22;12307;50.828;6.080;2022-11-20T06:43:25;19.30;55.10
24144;DHT22;12307;50.828;6.080;2022-11-20T06:45:52;19.30;55.10
24144;DHT22;12307;50.828;6.080;2022-11-20T06:48:18;19.30;55.10
24144;DHT22;12307;50.828;6.080;2022-11-20T06:50:44;19.30;55.10
24144;DHT22;12307;50.828;6.080;2022-11-20T06:53:09;19.30;55.00
24144;DHT22;12307;50.828;6.080;2022-11-20T06:55:35;19.30;55.10
24144;DHT22;12307;50.828;6.080;2022-11-20T06:58:02;19.30;55.10
24144;DHT22;12307;50.828;6.080;2022-11-20T07:00:27;19.30;55.10
24144;DHT22;12307;50.828;6.080;2022-11-20T07:02:53;19.30;55.00
24144;DHT22;12307;50.828;6.080;2022-11-20T07:05:19;19.30;55.10
24144;DHT22;12307;50.828;6.080;2022-11-20T07:07:45;19.30;55.00
24144;DHT22;12307;50.828;6.080;2022-11-20T07:10:11;19.30;55.10
24144;DHT22;12307;50.828;6.080;2022-11-20T07:12:36;19.30;55.10
24144;DHT22;12307;50.828;6.080;2022-11-20T07:15:05;19.30;55.10
24144;DHT22;12307;50.828;6.080;2022-11-20T07:17:30;19.30;55.10
24144;DHT22;12307;50.828;6.080;2022-11-20T07:19:56;19.30;55.10
24144;DHT22;12307;50.828;6.080;2022-11-20T07:22:22;19.30;55.00
24144;DHT22;12307;50.828;6.080;2022-11-20T07:24:47;19.30;55.10
24144;DHT22;12307;50.828;6.080;2022-11-20T07:27:13;19.30;55.10
24144;DHT22;12307;50.828;6.080;2022-11-20T07:29:39;19.30;55.10
24144;DHT22;12307;50.828;6.080;2022-11-20T07:32:06;19.30;55.00
24144;DHT22;12307;50.828;6.080;2022-11-20T07:34:32;19.30;55.00
24144;DHT22;12307;50.828;6.080;2022-11-20T07:36:57;19.30;55.00
24144;DHT22;12307;50.828;6.080;2022-11-20T07:39:23;19.30;55.10
24144;DHT22;12307;50.828;6.080;2022-11-20T07:41:48;19.30;55.00
24144;DHT22;12307;50.828;6.080;2022-11-20T07:44:14;19.30;55.00
24144;DHT22;12307;50.828;6.080;2022-11-20T07:46:40;19.30;55.00
24144;DHT22;12307;50.828;6.080;2022-11-20T07:49:07;19.30;55.00
24144;DHT22;12307;50.828;6.080;2022-11-20T07:51:32;19.30;55.00
24144;DHT22;12307;50.828;6.080;2022-11-20T07:53:58;19.30;55.00
24144;DHT22;12307;50.828;6.080;2022-11-20T07:56:24;19.30;55.00
24144;DHT22;12307;50.828;6.080;2022-11-20T07:58:49;19.30;55.00
24144;DHT22;12307;50.828;6.080;2022-11-20T08:01:15;19.30;55.00
24144;DHT22;12307;50.828;6.080;2022-11-20T08:03:41;19.30;55.00
24144;DHT22;12307;50.828;6.080;2022-11-20T08:06:08;19.30;55.00
24144;DHT22;12307;50.828;6.080;2022-11-20T08:08:34;19.30;55.00
24144;DHT22;12307;50.828;6.080;2022-11-20T08:11:00;19.30;55.00
24144;DHT22;12307;50.828;6.080;2022-11-20T08:13:46;19.30;55.00
24144;DHT22;12307;50.828;6.080;2022-11-20T08:16:30;19.30;55.00
24144;DHT22;12307;50.828;6.080;2022-11-20T08:18:56;19.30;55.00
24144;DHT22;12307;50.828;6.080;2022-11-20T08:21:23;19.30;54.90
24144;DHT22;12307;50.828;6.080;2022-11-20T08:23:49;19.30;54.90
24144;DHT22;12307;50.828;6.080;2022-11-20T08:26:14;19.30;54.90
24144;DHT22;12307;50.828;6.080;2022-11-20T08:28:40;19.30;54.90
24144;DHT22;12307;50.828;6.080;2022-11-20T08:31:06;19.30;54.90
24144;DHT22;12307;50.828;6.080;2022-11-20T08:33:31;19.30;54.90
24144;DHT22;12307;50.828;6.080;2022-11-20T08:35:59;19.30;54.90
24144;DHT22;12307;50.828;6.080;2022-11-20T08:38:27;19.30;54.90
24144;DHT22;12307;50.828;6.080;2022-11-20T08:40:56;19.40;54.80
24144;DHT22;12307;50.828;6.080;2022-11-20T08:43:40;19.30;54.80
24144;DHT22;12307;50.828;6.080;2022-11-20T08:46:06;19.40;54.90
24144;DHT22;12307;50.828;6.080;2022-11-20T08:48:31;19.40;54.80
24144;DHT22;12307;50.828;6.080;2022-11-20T08:50:58;19.40;54.80
24144;DHT22;12307;50.828;6.080;2022-11-20T08:53:23;19.40;54.80
24144;DHT22;12307;50.828;6.080;2022-11-20T08:55:50;19.40;54.70
24144;DHT22;12307;50.828;6.080;2022-11-20T08:58:16;19.40;54.80
24144;DHT22;12307;50.828;6.080;2022-11-20T09:00:42;19.40;54.70
24144;DHT22;12307;50.828;6.080;2022-11-20T09:03:07;19.40;54.60
24144;DHT22;12307;50.828;6.080;2022-11-20T09:05:33;19.40;54.60
24144;DHT22;12307;50.828;6.080;2022-11-20T09:07:59;19.50;54.70
24144;DHT22;12307;50.828;6.080;2022-11-20T09:10:25;19.40;54.60
24144;DHT22;12307;50.828;6.080;2022-11-20T09:12:52;19.50;54.60
24144;DHT22;12307;50.828;6.080;2022-11-20T09:15:18;19.50;54.60
24144;DHT22;12307;50.828;6.080;2022-11-20T09:17:50;19.50;54.60
24144;DHT22;12307;50.828;6.080;2022-11-20T09:20:16;19.50;54.60
24144;DHT22;12307;50.828;6.080;2022-11-20T09:22:42;19.50;54.60
24144;DHT22;12307;50.828;6.080;2022-11-20T09:25:08;19.50;54.60
24144;DHT22;12307;50.828;6.080;2022-11-20T09:27:33;19.50;54.70
24144;DHT22;12307;50.828;6.080;2022-11-20T09:30:02;19.50;54.60
24144;DHT22;12307;50.828;6.080;2022-11-20T09:32:28;19.50;54.60
24144;DHT22;12307;50.828;6.080;2022-11-20T09:34:53;19.50;54.60
24144;DHT22;12307;50.828;6.080;2022-11-20T09:37:19;19.50;54.70
24144;DHT22;12307;50.828;6.080;2022-11-20T09:39:45;19.40;54.60
24144;DHT22;12307;50.828;6.080;2022-11-20T09:42:26;19.40;54.60
24144;DHT22;12307;50.828;6.080;2022-11-20T09:45:08;19.50;54.60
24144;DHT22;12307;50.828;6.080;2022-11-20T09:47:45;19.50;54.70
24144;DHT22;12307;50.828;6.080;2022-11-20T09:50:22;19.50;54.60
24144;DHT22;12307;50.828;6.080;2022-11-20T09:52:58;19.50;54.60
24144;DHT22;12307;50.828;6.080;2022-11-20T09:55:26;19.50;54.60
24144;DHT22;12307;50.828;6.080;2022-11-20T09:57:55;19.50;54.60
24144;DHT22;12307;50.828;6.080;2022-11-20T10:00:22;19.50;54.50
24144;DHT22;12307;50.828;6.080;2022-11-20T10:02:52;19.50;54.60
24144;DHT22;12307;50.828;6.080;2022-11-20T10:05:21;19.50;54.60
24144;DHT22;12307;50.828;6.080;2022-11-20T10:07:52;19.50;54.60
24144;DHT22;12307;50.828;6.080;2022-11-20T10:10:29;19.50;54.60
24144;DHT22;12307;50.828;6.080;2022-11-20T10:13:08;19.50;54.50
24144;DHT22;12307;50.828;6.080;2022-11-20T10:15:44;19.50;54.50
24144;DHT22;12307;50.828;6.080;2022-11-20T10:18:23;19.50;54.50
24144;DHT22;12307;50.828;6.080;2022-11-20T10:20:58;19.50;54.50
24144;DHT22;12307;50.828;6.080;2022-11-20T10:23:50;19.50;54.60
24144;DHT22;12307;50.828;6.080;2022-11-20T10:26:25;19.50;54.50
24144;DHT22;12307;50.828;6.080;2022-11-20T10:29:01;19.50;54.60
24144;DHT22;12307;50.828;6.080;2022-11-20T10:31:33;19.50;54.60
24144;DHT22;12307;50.828;6.080;2022-11-20T10:34:02;19.50;54.60
24144;DHT22;12307;50.828;6.080;2022-11-20T10:36:30;19.50;54.60
24144;DHT22;12307;50.828;6.080;2022-11-20T10:39:05;19.50;54.60
24144;DHT22;12307;50.828;6.080;2022-11-20T10:41:39;19.50;54.60
24144;DHT22;12307;50.828;6.080;2022-11-20T10:44:12;19.50;55.20
24144;DHT22;12307;50.828;6.080;2022-11-20T10:46:43;19.50;54.60
24144;DHT22;12307;50.828;6.080;2022-11-20T10:49:13;19.50;54.60
24144;DHT22;12307;50.828;6.080;2022-11-20T10:51:46;19.50;54.60
24144;DHT22;12307;50.828;6.080;2022-11-20T10:54:19;19.50;54.60
24144;DHT22;12307;50.828;6.080;2022-11-20T10:56:50;19.60;54.60
24144;DHT22;12307;50.828;6.080;2022-11-20T10:59:37;19.50;54.60
24144;DHT22;12307;50.828;6.080;2022-11-20T11:02:16;19.60;54.60
24144;DHT22;12307;50.828;6.080;2022-11-20T11:04:44;19.60;54.60
24144;DHT22;12307;50.828;6.080;2022-11-20T11:07:15;19.60;54.60
24144;DHT22;12307;50.828;6.080;2022-11-20T11:09:44;19.60;54.60
24144;DHT22;12307;50.828;6.080;2022-11-20T11:12:11;19.60;54.60
24144;DHT22;12307;50.828;6.080;2022-11-20T11:14:46;19.70;54.60
24144;DHT22;12307;50.828;6.080;2022-11-20T11:17:23;19.70;54.60
24144;DHT22;12307;50.828;6.080;2022-11-20T11:20:03;19.70;54.50
24144;DHT22;12307;50.828;6.080;2022-11-20T11:22:32;19.70;54.40
24144;DHT22;12307;50.828;6.080;2022-11-20T11:24:58;19.70;54.40
24144;DHT22;12307;50.828;6.080;2022-11-20T11:27:24;19.80;54.30
24144;DHT22;12307;50.828;6.080;2022-11-20T11:30:02;19.80;54.20
24144;DHT22;12307;50.828;6.080;2022-11-20T11:32:29;19.80;54.20
24144;DHT22;12307;50.828;6.080;2022-11-20T11:35:03;19.80;54.10
24144;DHT22;12307;50.828;6.080;2022-11-20T11:37:34;19.80;54.20
24144;DHT22;12307;50.828;6.080;2022-11-20T11:40:01;19.80;54.30
24144;DHT22;12307;50.828;6.080;2022-11-20T11:42:28;19.80;54.20
24144;DHT22;12307;50.828;6.080;2022-11-20T11:44:57;19.80;54.20
24144;DHT22;12307;50.828;6.080;2022-11-20T11:47:37;19.80;54.20
24144;DHT22;12307;50.828;6.080;2022-11-20T11:50:15;19.80;54.20
24144;DHT22;12307;50.828;6.080;2022-11-20T11:52:44;19.90;54.40
24144;DHT22;12307;50.828;6.080;2022-11-20T11:55:15;19.80;54.20
24144;DHT22;12307;50.828;6.080;2022-11-20T11:57:47;19.80;54.30
24144;DHT22;12307;50.828;6.080;2022-11-20T12:00:16;19.80;54.40
24144;DHT22;12307;50.828;6.080;2022-11-20T12:02:53;19.80;54.50
24144;DHT22;12307;50.828;6.080;2022-11-20T12:05:24;19.80;54.40
24144;DHT22;12307;50.828;6.080;2022-11-20T12:07:53;19.90;54.40
24144;DHT22;12307;50.828;6.080;2022-11-20T12:10:22;19.90;54.40
24144;DHT22;12307;50.828;6.080;2022-11-20T12:12:53;19.90;54.30
24144;DHT22;12307;50.828;6.080;2022-11-20T12:15:27;19.90;54.30
24144;DHT22;12307;50.828;6.080;2022-11-20T12:17:55;19.90;54.30
24144;DHT22;12307;50.828;6.080;2022-11-20T12:20:24;19.90;54.30
24144;DHT22;12307;50.828;6.080;2022-11-20T12:22:56;19.90;54.30
24144;DHT22;12307;50.828;6.080;2022-11-20T12:25:27;19.90;54.40
24144;DHT22;12307;50.828;6.080;2022-11-20T12:28:07;19.90;54.40
24144;DHT22;12307;50.828;6.080;2022-11-20T12:30:41;19.90;54.40
24144;DHT22;12307;50.828;6.080;2022-11-20T12:33:47;19.90;54.40
24144;DHT22;12307;50.828;6.080;2022-11-20T12:36:21;19.90;54.50
24144;DHT22;12307;50.828;6.080;2022-11-20T12:39:02;19.80;54.40
24144;DHT22;12307;50.828;6.080;2022-11-20T12:41:51;19.80;54.60
24144;DHT22;12307;50.828;6.080;2022-11-20T12:44:52;19.80;54.60
24144;DHT22;12307;50.828;6.080;2022-11-20T12:48:04;19.80;54.60
24144;DHT22;12307;50.828;6.080;2022-11-20T12:50:47;19.80;54.60
24144;DHT22;12307;50.828;6.080;2022-11-20T12:53:25;19.80;54.70
24144;DHT22;12307;50.828;6.080;2022-11-20T12:55:56;19.80;54.60
24144;DHT22;12307;50.828;6.080;2022-11-20T12:58:31;19.80;54.70
24144;DHT22;12307;50.828;6.080;2022-11-20T13:01:04;19.80;54.60
24144;DHT22;12307;50.828;6.080;2022-11-20T13:03:41;19.80;54.70
24144;DHT22;12307;50.828;6.080;2022-11-20T13:06:15;19.80;54.60
24144;DHT22;12307;50.828;6.080;2022-11-20T13:08:47;19.80;54.70
24144;DHT22;12307;50.828;6.080;2022-11-20T13:11:18;19.80;54.60
24144;DHT22;12307;50.828;6.080;2022-11-20T13:14:02;19.80;54.60
24144;DHT22;12307;50.828;6.080;2022-11-20T13:16:33;19.80;54.60
24144;DHT22;12307;50.828;6.080;2022-11-20T13:19:02;19.90;54.70
24144;DHT22;12307;50.828;6.080;2022-11-20T13:21:37;19.80;54.60
24144;DHT22;12307;50.828;6.080;2022-11-20T13:24:07;19.80;55.20
24144;DHT22;12307;50.828;6.080;2022-11-20T13:26:33;19.80;54.60
24144;DHT22;12307;50.828;6.080;2022-11-20T13:29:03;19.80;54.60
24144;DHT22;12307;50.828;6.080;2022-11-20T13:31:32;19.80;54.60
24144;DHT22;12307;50.828;6.080;2022-11-20T13:34:00;19.80;54.60
24144;DHT22;12307;50.828;6.080;2022-11-20T13:36:28;19.80;54.60
24144;DHT22;12307;50.828;6.080;2022-11-20T13:38:57;19.80;54.70
24144;DHT22;12307;50.828;6.080;2022-11-20T13:41:25;19.80;54.70
24144;DHT22;12307;50.828;6.080;2022-11-20T13:43:54;19.80;54.70
24144;DHT22;12307;50.828;6.080;2022-11-20T13:46:22;19.80;54.70
24144;DHT22;12307;50.828;6.080;2022-11-20T13:48:51;19.80;54.80
24144;DHT22;12307;50.828;6.080;2022-11-20T13:51:28;19.70;54.80
24144;DHT22;12307;50.828;6.080;2022-11-20T13:54:09;19.70;54.90
24144;DHT22;12307;50.828;6.080;2022-11-20T13:56:51;19.70;54.80
24144;DHT22;12307;50.828;6.080;2022-11-20T13:59:32;19.70;54.90
24144;DHT22;12307;50.828;6.080;2022-11-20T14:02:00;19.70;54.90
24144;DHT22;12307;50.828;6.080;2022-11-20T14:04:30;19.70;54.90
24144;DHT22;12307;50.828;6.080;2022-11-20T14:06:57;19.70;55.00
24144;DHT22;12307;50.828;6.080;2022-11-20T14:09:29;19.70;55.00
24144;DHT22;12307;50.828;6.080;2022-11-20T14:11:55;19.60;54.90
24144;DHT22;12307;50.828;6.080;2022-11-20T14:14:22;19.60;55.00
24144;DHT22;12307;50.828;6.080;2022-11-20T14:16:48;19.60;55.00
24144;DHT22;12307;50.828;6.080;2022-11-20T14:19:27;19.60;55.00
24144;DHT22;12307;50.828;6.080;2022-11-20T14:21:55;19.60;55.10
24144;DHT22;12307;50.828;6.080;2022-11-20T14:24:32;19.60;55.00
24144;DHT22;12307;50.828;6.080;2022-11-20T14:26:58;19.60;55.00
24144;DHT22;12307;50.828;6.080;2022-11-20T14:29:29;19.60;55.00
24144;DHT22;12307;50.828;6.080;2022-11-20T14:31:56;19.60;55.00
24144;DHT22;12307;50.828;6.080;2022-11-20T14:34:25;19.60;55.70
24144;DHT22;12307;50.828;6.080;2022-11-20T14:36:55;19.60;55.10
24144;DHT22;12307;50.828;6.080;2022-11-20T14:39:22;19.60;55.10
24144;DHT22;12307;50.828;6.080;2022-11-20T14:41:52;19.60;55.20
24144;DHT22;12307;50.828;6.080;2022-11-20T14:44:20;19.50;55.10
24144;DHT22;12307;50.828;6.080;2022-11-20T14:46:48;19.50;55.20
24144;DHT22;12307;50.828;6.080;2022-11-20T14:49:15;19.50;55.10
24144;DHT22;12307;50.828;6.080;2022-11-20T14:51:41;19.50;55.10
24144;DHT22;12307;50.828;6.080;2022-11-20T14:54:11;19.50;55.20
24144;DHT22;12307;50.828;6.080;2022-11-20T14:56:36;19.50;55.20
24144;DHT22;12307;50.828;6.080;2022-11-20T14:59:04;19.50;55.20
24144;DHT22;12307;50.828;6.080;2022-11-20T15:01:31;19.50;55.20
24144;DHT22;12307;50.828;6.080;2022-11-20T15:04:00;19.50;55.20
24144;DHT22;12307;50.828;6.080;2022-11-20T15:06:26;19.50;55.20
24144;DHT22;12307;50.828;6.080;2022-11-20T15:08:53;19.50;55.20
24144;DHT22;12307;50.828;6.080;2022-11-20T15:11:22;19.50;55.30
24144;DHT22;12307;50.828;6.080;2022-11-20T15:13:50;19.50;55.30
24144;DHT22;12307;50.828;6.080;2022-11-20T15:16:19;19.50;55.30
24144;DHT22;12307;50.828;6.080;2022-11-20T15:18:45;19.50;55.30
24144;DHT22;12307;50.828;6.080;2022-11-20T15:21:13;19.50;55.30
24144;DHT22;12307;50.828;6.080;2022-11-20T15:23:39;19.50;55.30
24144;DHT22;12307;50.828;6.080;2022-11-20T15:26:05;19.40;55.30
24144;DHT22;12307;50.828;6.080;2022-11-20T15:28:32;19.50;55.30
24144;DHT22;12307;50.828;6.080;2022-11-20T15:30:59;19.50;55.30
24144;DHT22;12307;50.828;6.080;2022-11-20T15:33:27;19.50;55.30
24144;DHT22;12307;50.828;6.080;2022-11-20T15:35:52;19.50;55.30
24144;DHT22;12307;50.828;6.080;2022-11-20T15:38:18;19.50;55.30
24144;DHT22;12307;50.828;6.080;2022-11-20T15:40:43;19.40;55.30